createdAt,value
2022-08-07T00:00:39.950Z,22.30
2022-08-07T00:03:08.671Z,22.10
2022-08-07T00:05:37.165Z,22.30
2022-08-07T00:08:05.768Z,22.30
2022-08-07T00:10:36.007Z,22.20
2022-08-07T00:13:25.838Z,22.20
2022-08-07T00:15:56.439Z,22.30
2022-08-07T00:18:26.323Z,22.20
2022-08-07T00:20:54.907Z,22.50
2022-08-07T00:23:24.952Z,22.40
2022-08-07T00:26:00.155Z,22.10
2022-08-07T00:28:33.332Z,22.50
2022-08-07T00:31:06.064Z,22.50
2022-08-07T00:33:35.069Z,22.30
2022-08-07T00:36:03.322Z,22.20
2022-08-07T00:38:33.293Z,22.30
2022-08-07T00:41:01.873Z,22.20
2022-08-07T00:44:01.309Z,22.30
2022-08-07T00:46:20.064Z,22.40
2022-08-07T00:48:51.785Z,22.00
2022-08-07T00:51:20.752Z,22.00
2022-08-07T00:53:50.724Z,22.30
2022-08-07T00:56:30.230Z,22.20
2022-08-07T00:58:58.680Z,22.20
2022-08-07T01:01:28.249Z,22.20
2022-08-07T01:04:10.073Z,21.80
2022-08-07T01:06:38.730Z,21.70
2022-08-07T01:09:07.897Z,22.00
2022-08-07T01:12:11.076Z,21.80
2022-08-07T01:14:28.811Z,22.00
2022-08-07T01:16:58.513Z,22.30
2022-08-07T01:19:26.666Z,22.10
2022-08-07T01:21:56.113Z,21.70
2022-08-07T01:24:24.407Z,21.90
2022-08-07T01:26:53.947Z,21.50
2022-08-07T01:29:27.759Z,21.90
2022-08-07T01:31:59.541Z,21.50
2022-08-07T01:34:30.895Z,21.50
2022-08-07T01:37:00.781Z,21.50
2022-08-07T01:39:41.222Z,21.40
2022-08-07T01:42:39.968Z,21.70
2022-08-07T01:45:04.083Z,21.60
2022-08-07T01:48:20.088Z,21.80
2022-08-07T01:50:22.825Z,21.70
2022-08-07T01:52:59.350Z,21.90
2022-08-07T01:55:28.250Z,21.50
2022-08-07T01:58:06.489Z,21.50
2022-08-07T02:00:49.361Z,21.50
2022-08-07T02:03:26.226Z,21.80
2022-08-07T02:05:59.615Z,21.60
2022-08-07T02:08:30.206Z,21.50
2022-08-07T02:10:59.586Z,21.50
2022-08-07T02:13:58.117Z,21.60
2022-08-07T02:16:19.666Z,21.30
2022-08-07T02:18:48.136Z,21.50
2022-08-07T02:21:19.289Z,21.40
2022-08-07T02:23:49.345Z,21.30
2022-08-07T02:26:32.654Z,21.60
2022-08-07T02:29:03.180Z,21.50
2022-08-07T02:31:32.653Z,21.30
2022-08-07T02:34:10.956Z,21.00
2022-08-07T02:36:39.465Z,21.30
2022-08-07T02:39:16.816Z,21.40
2022-08-07T02:41:58.823Z,21.60
2022-08-07T02:44:34.687Z,21.30
2022-08-07T02:47:03.451Z,21.30
2022-08-07T02:49:58.570Z,21.10
2022-08-07T02:52:22.408Z,20.90
2022-08-07T02:55:02.005Z,21.20
2022-08-07T02:57:35.005Z,20.90
2022-08-07T03:00:05.022Z,21.30
2022-08-07T03:02:41.871Z,20.90
2022-08-07T03:05:23.104Z,20.80
2022-08-07T03:08:07.120Z,20.80
2022-08-07T03:10:46.210Z,20.90
2022-08-07T03:13:15.588Z,21.10
2022-08-07T03:15:56.422Z,20.80
2022-08-07T03:18:34.844Z,21.00
2022-08-07T03:21:04.649Z,20.50
2022-08-07T03:24:18.961Z,20.70
2022-08-07T03:26:27.940Z,20.60
2022-08-07T03:28:56.247Z,20.80
2022-08-07T03:31:43.193Z,20.80
2022-08-07T03:34:18.445Z,20.40
2022-08-07T03:36:50.192Z,20.60
2022-08-07T03:39:42.051Z,20.60
2022-08-07T03:42:07.870Z,20.30
2022-08-07T03:44:37.359Z,20.20
2022-08-07T03:47:13.345Z,20.40
2022-08-07T03:49:47.818Z,20.80
2022-08-07T03:52:22.780Z,20.70
2022-08-07T03:54:57.285Z,20.70
2022-08-07T03:58:34.729Z,20.80
2022-08-07T04:00:29.403Z,20.70
2022-08-07T04:02:59.217Z,20.30
2022-08-07T04:05:39.192Z,20.60
2022-08-07T04:08:08.237Z,20.10
2022-08-07T04:10:39.218Z,20.00
2022-08-07T04:13:15.139Z,20.50
2022-08-07T04:15:43.817Z,20.40
2022-08-07T04:18:57.866Z,20.30
2022-08-07T04:21:02.719Z,20.00
2022-08-07T04:23:43.627Z,20.20
2022-08-07T04:26:21.997Z,20.70
2022-08-07T04:28:51.643Z,20.10
2022-08-07T04:31:38.363Z,20.30
2022-08-07T04:34:16.870Z,20.30
2022-08-07T04:36:45.462Z,20.50
2022-08-07T04:39:18.652Z,20.00
2022-08-07T04:41:53.928Z,20.20
2022-08-07T04:44:23.415Z,20.10
2022-08-07T04:47:04.319Z,20.50
2022-08-07T04:49:41.257Z,20.40
2022-08-07T04:52:13.820Z,20.60
2022-08-07T04:54:47.133Z,20.70
2022-08-07T04:58:12.230Z,20.60
2022-08-07T05:00:18.691Z,20.40
2022-08-07T05:02:54.309Z,20.70
2022-08-07T05:05:51.694Z,20.50
2022-08-07T05:08:19.397Z,20.70
2022-08-07T05:11:10.965Z,20.80
2022-08-07T05:14:53.189Z,20.90
2022-08-07T05:16:44.017Z,21.30
2022-08-07T05:19:14.515Z,21.30
2022-08-07T05:22:00.235Z,21.10
2022-08-07T05:24:30.368Z,21.30
2022-08-07T05:26:59.801Z,21.00
2022-08-07T05:29:38.997Z,21.10
2022-08-07T05:32:19.106Z,21.00
2022-08-07T05:34:48.773Z,21.50
2022-08-07T05:37:25.277Z,21.70
2022-08-07T05:40:17.067Z,21.60
2022-08-07T05:42:42.240Z,21.80
2022-08-07T05:45:46.129Z,21.60
2022-08-07T05:48:13.698Z,21.80
2022-08-07T05:50:42.970Z,21.80
2022-08-07T05:54:11.955Z,22.20
2022-08-07T05:56:03.176Z,22.20
2022-08-07T05:58:37.097Z,22.30
2022-08-07T06:01:05.962Z,22.20
2022-08-07T06:03:53.590Z,22.50
2022-08-07T06:06:30.006Z,22.30
2022-08-07T06:09:01.223Z,22.50
2022-08-07T06:11:33.751Z,22.50
2022-08-07T06:14:11.988Z,22.50
2022-08-07T06:16:42.153Z,23.00
2022-08-07T06:19:18.045Z,22.80
2022-08-07T06:22:14.629Z,22.80
2022-08-07T06:24:57.704Z,22.80
2022-08-07T06:27:44.427Z,23.00
2022-08-07T06:30:31.850Z,23.30
2022-08-07T06:33:03.854Z,23.70
2022-08-07T06:35:39.209Z,23.90
2022-08-07T06:38:20.552Z,23.30
2022-08-07T06:40:49.955Z,23.50
2022-08-07T06:43:21.435Z,23.30
2022-08-07T06:45:50.601Z,23.50
2022-08-07T06:48:25.139Z,23.80
2022-08-07T06:50:55.019Z,23.90
2022-08-07T06:54:11.970Z,24.30
2022-08-07T06:56:15.042Z,24.50
2022-08-07T07:00:11.600Z,24.70
2022-08-07T07:01:33.275Z,24.60
2022-08-07T07:04:28.032Z,25.10
2022-08-07T07:07:10.436Z,25.00
2022-08-07T07:09:39.294Z,25.00
2022-08-07T07:12:27.832Z,24.80
2022-08-07T07:15:03.448Z,25.20
2022-08-07T07:17:39.036Z,25.60
2022-08-07T07:20:09.114Z,25.70
2022-08-07T07:24:05.622Z,24.90
2022-08-07T07:26:32.176Z,26.00
2022-08-07T07:28:42.437Z,26.40
2022-08-07T07:31:07.963Z,26.20
2022-08-07T07:33:37.174Z,26.80
2022-08-07T07:36:12.613Z,26.40
2022-08-07T07:38:43.418Z,26.80
2022-08-07T07:41:14.573Z,26.50
2022-08-07T07:44:13.841Z,27.40
2022-08-07T07:46:37.173Z,27.40
2022-08-07T07:50:35.565Z,27.10
2022-08-07T07:52:13.604Z,27.00
2022-08-07T07:54:51.476Z,27.10
2022-08-07T07:57:51.608Z,27.40
2022-08-07T08:00:21.105Z,28.00
2022-08-07T08:03:04.668Z,27.80
2022-08-07T08:05:53.670Z,28.30
2022-08-07T08:08:34.281Z,27.90
2022-08-07T08:11:07.968Z,28.00
2022-08-07T08:13:54.522Z,28.50
2022-08-07T08:16:25.307Z,28.10
2022-08-07T08:18:54.221Z,28.50
2022-08-07T08:22:00.772Z,27.80
2022-08-07T08:24:46.516Z,27.50
2022-08-07T08:27:16.741Z,29.00
2022-08-07T08:29:54.484Z,28.60
2022-08-07T08:32:38.533Z,29.30
2022-08-07T08:35:08.749Z,28.80
2022-08-07T08:38:00.717Z,28.80
2022-08-07T08:40:29.075Z,29.30
2022-08-07T08:43:03.291Z,29.70
2022-08-07T08:45:41.949Z,28.70
2022-08-07T08:48:32.636Z,29.80
2022-08-07T08:51:14.811Z,29.10
2022-08-07T08:53:58.028Z,28.80
2022-08-07T08:56:30.394Z,30.30
2022-08-07T08:59:08.652Z,30.40
2022-08-07T09:01:49.193Z,30.20
2022-08-07T09:04:25.878Z,30.20
2022-08-07T09:06:59.270Z,30.50
2022-08-07T09:09:48.240Z,29.00
2022-08-07T09:12:34.170Z,29.40
2022-08-07T09:16:25.844Z,30.00
2022-08-07T09:18:16.934Z,30.60
2022-08-07T09:20:58.620Z,30.70
2022-08-07T09:24:31.970Z,30.20
2022-08-07T09:26:26.228Z,30.20
2022-08-07T09:30:01.981Z,30.10
2022-08-07T09:31:56.134Z,30.40
2022-08-07T09:34:27.169Z,30.50
2022-08-07T09:37:00.395Z,30.70
2022-08-07T09:39:55.162Z,31.30
2022-08-07T09:42:35.362Z,30.20
2022-08-07T09:47:24.103Z,30.90
2022-08-07T09:48:11.748Z,31.10
2022-08-07T09:50:47.919Z,31.40
2022-08-07T09:53:20.254Z,30.30
2022-08-07T09:56:03.246Z,31.00
2022-08-07T09:58:54.301Z,31.50
2022-08-07T10:01:53.448Z,31.20
2022-08-07T10:04:45.874Z,30.80
2022-08-07T10:07:52.399Z,31.10
2022-08-07T10:10:28.546Z,31.00
2022-08-07T10:14:00.053Z,32.00
2022-08-07T10:16:36.153Z,31.00
2022-08-07T10:19:37.731Z,31.90
2022-08-07T10:22:33.203Z,31.80
2022-08-07T10:25:10.820Z,29.90
2022-08-07T10:27:58.034Z,32.30
2022-08-07T10:30:28.631Z,31.50
2022-08-07T10:34:06.218Z,31.80
2022-08-07T10:36:29.799Z,31.20
2022-08-07T10:39:00.362Z,31.60
2022-08-07T10:41:47.027Z,31.00
2022-08-07T10:44:28.715Z,31.30
2022-08-07T10:47:14.195Z,31.70
2022-08-07T10:49:49.338Z,32.40
2022-08-07T10:52:40.098Z,31.50
2022-08-07T10:55:26.994Z,31.10
2022-08-07T10:58:13.985Z,31.00
2022-08-07T11:00:50.672Z,32.00
2022-08-07T11:03:37.933Z,31.80
2022-08-07T11:06:26.807Z,31.30
2022-08-07T11:09:01.592Z,32.40
2022-08-07T11:11:35.892Z,31.10
2022-08-07T11:14:46.026Z,31.20
2022-08-07T11:17:01.874Z,32.30
2022-08-07T11:19:32.771Z,31.30
2022-08-07T11:22:11.158Z,32.40
2022-08-07T11:24:53.007Z,31.60
2022-08-07T11:27:24.645Z,32.10
2022-08-07T11:30:18.211Z,32.30
2022-08-07T11:32:53.557Z,32.30
2022-08-07T11:35:25.318Z,32.80
2022-08-07T11:38:10.106Z,33.00
2022-08-07T11:40:49.606Z,33.20
2022-08-07T11:43:29.606Z,32.30
2022-08-07T11:46:16.994Z,32.30
2022-08-07T11:49:51.088Z,32.70
2022-08-07T11:51:59.696Z,32.30
2022-08-07T11:54:37.623Z,32.80
2022-08-07T11:57:15.737Z,33.30
2022-08-07T12:00:12.653Z,32.60
2022-08-07T12:03:04.809Z,32.80
2022-08-07T12:05:49.302Z,32.80
2022-08-07T12:08:25.734Z,33.10
2022-08-07T12:11:20.661Z,32.90
2022-08-07T12:13:54.212Z,32.90
2022-08-07T12:16:30.321Z,32.30
2022-08-07T12:19:02.798Z,32.10
2022-08-07T12:22:36.720Z,32.80
2022-08-07T12:24:38.422Z,32.30
2022-08-07T12:27:16.022Z,32.10
2022-08-07T12:29:51.820Z,33.30
2022-08-07T12:32:22.640Z,33.30
2022-08-07T12:34:55.752Z,33.30
2022-08-07T12:37:28.625Z,33.30
2022-08-07T12:40:36.251Z,33.30
2022-08-07T12:43:01.799Z,33.80
2022-08-07T12:45:35.192Z,31.00
2022-08-07T12:48:27.578Z,31.80
2022-08-07T12:51:01.330Z,32.80
2022-08-07T12:54:37.479Z,32.50
2022-08-07T12:56:33.034Z,33.60
2022-08-07T12:59:01.230Z,33.20
2022-08-07T13:01:43.845Z,33.80
2022-08-07T13:04:32.634Z,33.40
2022-08-07T13:08:11.943Z,33.50
2022-08-07T13:10:37.720Z,33.80
2022-08-07T13:13:46.636Z,33.00
2022-08-07T13:16:13.600Z,33.50
2022-08-07T13:18:49.147Z,33.60
2022-08-07T13:21:37.647Z,31.50
2022-08-07T13:24:11.394Z,31.70
2022-08-07T13:26:46.407Z,33.00
2022-08-07T13:29:17.820Z,33.20
2022-08-07T13:31:57.449Z,33.10
2022-08-07T13:34:35.991Z,32.90
2022-08-07T13:37:10.700Z,33.30
2022-08-07T13:40:33.785Z,32.30
2022-08-07T13:42:41.069Z,32.10
2022-08-07T13:46:07.219Z,32.00
2022-08-07T13:48:08.293Z,33.60
2022-08-07T13:50:44.756Z,32.70
2022-08-07T13:53:36.055Z,33.30
2022-08-07T13:56:20.084Z,33.30
2022-08-07T13:59:05.808Z,34.20
2022-08-07T14:01:51.310Z,32.20
2022-08-07T14:04:29.967Z,32.80
2022-08-07T14:07:09.486Z,33.20
2022-08-07T14:10:02.332Z,34.10
2022-08-07T14:12:41.633Z,34.10
2022-08-07T14:15:12.177Z,32.40
2022-08-07T14:18:12.711Z,32.50
2022-08-07T14:20:42.587Z,31.80
2022-08-07T14:23:31.173Z,32.40
2022-08-07T14:26:08.665Z,31.40
2022-08-07T14:28:55.835Z,31.60
2022-08-07T14:31:25.344Z,33.30
2022-08-07T14:34:12.357Z,32.40
2022-08-07T14:40:19.724Z,33.80
2022-08-07T14:42:31.531Z,33.80
2022-08-07T14:45:21.817Z,33.40
2022-08-07T14:47:51.235Z,32.80
2022-08-07T14:50:26.531Z,32.10
2022-08-07T14:52:55.334Z,32.60
2022-08-07T14:55:28.625Z,33.30
2022-08-07T14:58:00.431Z,32.90
2022-08-07T15:00:34.429Z,33.40
2022-08-07T15:03:17.419Z,32.70
2022-08-07T15:05:55.316Z,32.40
2022-08-07T15:08:33.872Z,33.40
2022-08-07T15:11:04.151Z,33.20
2022-08-07T15:13:35.922Z,33.30
2022-08-07T15:16:11.464Z,32.50
2022-08-07T15:18:44.257Z,32.80
2022-08-07T15:27:01.137Z,32.30
2022-08-07T15:30:09.087Z,33.00
2022-08-07T15:32:39.780Z,33.30
2022-08-07T15:35:15.108Z,33.40
2022-08-07T15:38:04.548Z,32.40
2022-08-07T15:40:34.633Z,31.30
2022-08-07T15:43:52.883Z,31.70
2022-08-07T15:49:12.746Z,30.80
2022-08-07T15:54:27.095Z,32.90
2022-08-07T15:56:55.461Z,33.10
2022-08-07T15:59:39.783Z,33.40
2022-08-07T16:02:15.278Z,34.20
2022-08-07T16:04:44.628Z,33.50
2022-08-07T16:08:29.139Z,33.30
2022-08-07T16:10:10.658Z,33.30
2022-08-07T16:13:00.971Z,32.40
2022-08-07T16:15:57.903Z,33.30
2022-08-07T16:18:50.242Z,33.30
2022-08-07T16:22:02.103Z,33.20
2022-08-07T16:24:33.714Z,33.30
2022-08-07T16:27:18.160Z,33.00
2022-08-07T16:30:30.248Z,32.90
2022-08-07T16:34:02.402Z,32.20
2022-08-07T16:35:59.345Z,32.00
2022-08-07T16:39:00.638Z,32.50
2022-08-07T16:41:41.233Z,33.00
2022-08-07T16:44:57.245Z,32.90
2022-08-07T16:47:53.095Z,33.50
2022-08-07T16:50:39.190Z,32.90
2022-08-07T16:53:57.275Z,32.80
2022-08-07T16:56:37.268Z,33.10
2022-08-07T16:59:15.261Z,32.70
2022-08-07T17:01:52.516Z,32.10
2022-08-07T17:04:34.739Z,32.60
2022-08-07T17:07:15.303Z,32.30
2022-08-07T17:10:06.764Z,32.30
2022-08-07T17:12:44.400Z,32.60
2022-08-07T17:15:20.093Z,32.30
2022-08-07T17:17:54.744Z,32.30
2022-08-07T17:20:32.790Z,32.40
2022-08-07T17:23:08.829Z,32.40
2022-08-07T17:25:52.229Z,32.50
2022-08-07T17:28:31.094Z,32.30
2022-08-07T17:31:15.610Z,32.00
2022-08-07T17:34:17.890Z,32.00
2022-08-07T17:36:57.552Z,32.20
2022-08-07T17:39:58.316Z,31.60
2022-08-07T17:42:30.896Z,31.60
2022-08-07T17:44:59.512Z,31.60
2022-08-07T17:47:38.506Z,31.50
2022-08-07T17:50:15.492Z,31.20
2022-08-07T17:52:47.978Z,31.80
2022-08-07T17:55:56.561Z,31.90
2022-08-07T17:58:09.447Z,32.00
2022-08-07T18:00:48.848Z,31.80
2022-08-07T18:03:25.617Z,31.70
2022-08-07T18:06:03.002Z,31.40
2022-08-07T18:08:54.220Z,31.30
2022-08-07T18:12:08.420Z,31.20
2022-08-07T18:14:25.101Z,30.90
2022-08-07T18:16:58.240Z,31.10
2022-08-07T18:21:08.598Z,30.90
2022-08-07T18:22:26.553Z,30.80
2022-08-07T18:25:01.549Z,30.80
2022-08-07T18:28:21.525Z,30.60
2022-08-07T18:31:01.429Z,30.80
2022-08-07T18:34:05.208Z,31.10
2022-08-07T18:36:58.162Z,30.90
2022-08-07T18:40:05.724Z,30.80
2022-08-07T18:42:28.428Z,30.30
2022-08-07T18:45:43.953Z,30.30
2022-08-07T18:48:01.135Z,29.90
2022-08-07T18:50:52.270Z,29.80
2022-08-07T18:53:39.209Z,29.80
2022-08-07T18:56:13.092Z,29.50
2022-08-07T18:59:46.918Z,29.40
2022-08-07T19:02:34.439Z,29.40
2022-08-07T19:05:10.477Z,29.30
2022-08-07T19:07:52.941Z,29.30
2022-08-07T19:10:31.494Z,28.80
2022-08-07T19:13:10.286Z,28.70
2022-08-07T19:16:04.462Z,28.30
2022-08-07T19:18:44.791Z,28.80
2022-08-07T19:21:43.964Z,28.20
2022-08-07T19:24:30.845Z,28.30
2022-08-07T19:31:01.710Z,27.30
2022-08-07T19:32:59.682Z,27.30
2022-08-07T19:36:27.827Z,27.10
2022-08-07T19:39:57.251Z,27.00
2022-08-07T19:42:30.708Z,26.50
2022-08-07T19:45:00.532Z,26.00
2022-08-07T19:47:36.590Z,26.10
2022-08-07T19:50:45.163Z,26.30
2022-08-07T19:52:59.047Z,26.30
2022-08-07T19:55:56.553Z,26.30
2022-08-07T19:58:28.107Z,26.20
2022-08-07T20:00:57.817Z,26.10
2022-08-07T20:03:35.486Z,25.50
2022-08-07T20:06:05.121Z,25.50
2022-08-07T20:08:34.933Z,24.90
2022-08-07T20:11:10.331Z,24.80
2022-08-07T20:13:42.233Z,24.90
2022-08-07T20:16:15.744Z,25.20
2022-08-07T20:18:59.296Z,25.20
2022-08-07T20:21:29.137Z,24.50
2022-08-07T20:24:15.292Z,24.10
2022-08-07T20:26:50.102Z,24.30
2022-08-07T20:29:48.311Z,24.30
2022-08-07T20:32:22.269Z,24.50
2022-08-07T20:34:52.792Z,23.90
2022-08-07T20:37:29.943Z,24.10
2022-08-07T20:40:05.375Z,24.30
2022-08-07T20:42:56.635Z,24.00
2022-08-07T20:46:24.371Z,23.50
2022-08-07T20:48:28.998Z,23.50
2022-08-07T20:50:59.828Z,23.10
2022-08-07T20:54:01.876Z,23.50
2022-08-07T20:56:16.261Z,23.90
2022-08-07T20:58:47.285Z,23.30
2022-08-07T21:01:23.149Z,23.30
2022-08-07T21:04:18.676Z,23.20
2022-08-07T21:06:46.608Z,23.00
2022-08-07T21:09:24.228Z,22.90
2022-08-07T21:11:57.142Z,22.80
2022-08-07T21:14:32.729Z,23.20
2022-08-07T21:18:00.920Z,22.70
2022-08-07T21:20:05.616Z,23.30
2022-08-07T21:22:34.420Z,23.30
2022-08-07T21:25:12.241Z,23.40
2022-08-07T21:28:02.060Z,23.30
2022-08-07T21:30:38.935Z,23.70
2022-08-07T21:33:14.423Z,23.70
2022-08-07T21:36:04.251Z,23.20
2022-08-07T21:38:44.192Z,22.80
2022-08-07T21:41:18.810Z,23.20
2022-08-07T21:43:56.349Z,23.10
2022-08-07T21:46:32.269Z,23.20
2022-08-07T21:49:04.877Z,22.90
2022-08-07T21:51:54.826Z,22.80
2022-08-07T21:54:28.941Z,23.10
2022-08-07T21:57:16.066Z,23.10
2022-08-07T22:00:03.085Z,23.30
2022-08-07T22:02:41.696Z,23.20
2022-08-07T22:05:12.342Z,23.00
2022-08-07T22:07:59.967Z,22.80
2022-08-07T22:10:33.648Z,23.10
2022-08-07T22:13:05.809Z,23.00
2022-08-07T22:16:43.510Z,22.80
2022-08-07T22:18:33.289Z,22.90
2022-08-07T22:21:05.306Z,23.00
2022-08-07T22:23:45.013Z,22.90
2022-08-07T22:26:14.717Z,23.00
2022-08-07T22:28:52.961Z,22.80
2022-08-07T22:31:56.094Z,22.60
2022-08-07T22:34:18.688Z,22.30
2022-08-07T22:37:03.518Z,22.50
2022-08-07T22:39:52.700Z,22.70
2022-08-07T22:42:53.835Z,22.50
2022-08-07T22:45:10.971Z,22.50
2022-08-07T22:48:31.777Z,22.20
2022-08-07T22:51:31.887Z,21.80
2022-08-07T22:54:11.118Z,22.30
2022-08-07T22:56:52.937Z,22.00
2022-08-07T22:59:51.883Z,21.30
2022-08-07T23:02:52.553Z,21.30
2022-08-07T23:06:15.788Z,21.00
2022-08-07T23:08:58.559Z,20.70
2022-08-07T23:11:52.997Z,21.80
2022-08-07T23:14:47.474Z,22.00
2022-08-07T23:17:27.373Z,22.40
2022-08-07T23:20:51.101Z,22.30
2022-08-07T23:24:04.046Z,22.30
2022-08-07T23:26:27.131Z,22.30
2022-08-07T23:29:16.519Z,22.00
2022-08-07T23:34:24.042Z,21.70
2022-08-07T23:38:47.487Z,21.70
2022-08-07T23:41:33.453Z,21.10
2022-08-07T23:44:18.877Z,21.50
2022-08-07T23:47:13.368Z,22.00
2022-08-07T23:49:53.679Z,21.90
2022-08-07T23:53:11.709Z,21.40
2022-08-07T23:55:53.698Z,21.50
2022-08-07T23:58:21.270Z,21.80
